Time;durP1;ratioP1;P1;durP2;ratioP2;P2;SDS_P1;SDS_P2;PMS_P1;PMS_P2;Temp;Humidity;BMP_temperature;BMP_pressure;BME280_temperature;BME280_humidity;BME280_pressure;Samples;Min_cycle;Max_cycle;Signal;HPM_P1;HPM_P2
2022/11/30 01:19:05;;;;;;;15.05;7.75;;;24.50;67.70;;;;;;5078417;27;20406;-70
2022/11/30 01:21:31;;;;;;;13.18;5.15;;;24.50;67.60;;;;;;5072968;28;20025;-75
2022/11/30 01:23:58;;;;;;;11.85;4.93;;;24.50;67.30;;;;;;5072539;28;20024;-74
2022/11/30 01:27:04;;;;;;;7.82;3.40;;;24.50;67.00;;;;;;5073431;28;20111;-72
2022/11/30 01:29:30;;;;;;;;;;;24.50;66.90;;;;;;5071543;28;20047;-76
2022/11/30 01:31:56;;;;;;;7.75;3.22;;;24.50;66.70;;;;;;5076037;28;19911;-74
2022/11/30 01:34:23;;;;;;;5.85;2.50;;;24.50;66.60;;;;;;5071430;28;20441;-77
2022/11/30 01:36:49;;;;;;;7.15;3.20;;;24.50;66.70;;;;;;5071304;28;20028;-69
2022/11/30 01:39:16;;;;;;;11.93;2.60;;;24.50;66.50;;;;;;5071866;28;20031;-69
2022/11/30 01:41:42;;;;;;;6.75;3.47;;;24.50;66.50;;;;;;5071107;28;20021;-74
2022/11/30 01:44:15;;;;;;;10.32;3.50;;;24.50;66.50;;;;;;5082786;28;20074;-78
2022/11/30 01:47:06;;;;;;;12.40;4.35;;;24.40;66.50;;;;;;5076502;28;20056;-78
2022/11/30 01:50:15;;;;;;;11.43;5.85;;;24.40;66.90;;;;;;5074572;28;20040;-76
2022/11/30 01:52:49;;;;;;;7.60;3.05;;;24.40;67.20;;;;;;5069917;28;20418;-70
2022/11/30 01:55:30;;;;;;;6.67;3.23;;;24.40;67.10;;;;;;5075947;28;20028;-77
2022/11/30 01:58:10;;;;;;;7.93;3.33;;;24.40;67.00;;;;;;5073742;28;20032;-76
2022/11/30 02:00:38;;;;;;;7.55;2.83;;;24.40;66.90;;;;;;5069501;28;20021;-76
2022/11/30 02:03:17;;;;;;;14.80;5.85;;;24.40;66.90;;;;;;5073863;28;20016;-77
2022/11/30 02:05:44;;;;;;;16.77;3.35;;;24.40;66.80;;;;;;5072264;28;20070;-77
2022/11/30 02:08:11;;;;;;;16.98;3.95;;;24.40;66.70;;;;;;5068740;28;20029;-77
2022/11/30 02:10:44;;;;;;;5.90;2.22;;;24.40;66.60;;;;;;5069140;28;20020;-77
2022/11/30 02:13:13;;;;;;;7.63;2.38;;;24.40;66.40;;;;;;5072830;28;20510;-73
2022/11/30 02:16:41;;;;;;;9.27;2.08;;;24.40;66.30;;;;;;5077982;28;20046;-74
2022/11/30 02:19:13;;;;;;;24.15;10.18;;;24.40;66.10;;;;;;5031914;28;20037;-76
2022/11/30 02:22:12;;;;;;;16.95;11.52;;;24.40;66.50;;;;;;5037711;28;20554;-71
2022/11/30 02:25:09;;;;;;;13.27;7.43;;;24.30;67.20;;;;;;5052832;28;20028;-76
2022/11/30 02:27:48;;;;;;;11.68;4.32;;;24.30;67.50;;;;;;5083256;28;20501;-75
2022/11/30 02:30:19;;;;;;;10.65;3.53;;;24.30;67.10;;;;;;5065847;28;20023;-73
2022/11/30 02:32:59;;;;;;;9.93;3.78;;;24.30;66.70;;;;;;5063970;28;20549;-75
2022/11/30 02:35:29;;;;;;;6.82;2.95;;;24.30;66.40;;;;;;5060838;28;20470;-76
2022/11/30 02:37:57;;;;;;;5.43;2.42;;;24.30;66.20;;;;;;5060893;28;20029;-76
2022/11/30 02:40:24;;;;;;;6.13;2.40;;;24.30;66.20;;;;;;5061773;28;20063;-73
2022/11/30 02:42:53;;;;;;;8.25;2.80;;;24.30;66.10;;;;;;5058407;28;20076;-75
2022/11/30 02:46:01;;;;;;;9.10;3.55;;;24.30;66.10;;;;;;5066025;28;20504;-73
2022/11/30 02:48:52;;;;;;;7.70;3.25;;;24.30;66.10;;;;;;5068464;28;20486;-75
2022/11/30 02:51:24;;;;;;;7.85;3.55;;;24.30;66.20;;;;;;5061220;28;20030;-75
2022/11/30 02:53:51;;;;;;;16.33;5.78;;;24.20;66.20;;;;;;5066297;28;20032;-76
2022/11/30 02:56:19;;;;;;;22.17;9.90;;;24.20;66.40;;;;;;5066482;28;20342;-77
2022/11/30 02:58:46;;;;;;;15.90;9.75;;;24.20;66.70;;;;;;5062262;28;20395;-77
2022/11/30 03:01:12;;;;;;;21.65;9.35;;;24.30;67.30;;;;;;5067050;28;20013;-75
2022/11/30 03:03:39;;;;;;;11.43;5.40;;;24.20;67.70;;;;;;5065604;28;20048;-74
2022/11/30 03:06:05;;;;;;;13.50;5.00;;;24.20;67.70;;;;;;5059627;28;20057;-73
2022/11/30 03:08:32;;;;;;;13.45;4.40;;;24.20;67.50;;;;;;5068086;28;20378;-76
2022/11/30 03:11:02;;;;;;;12.85;5.40;;;24.20;67.30;;;;;;5061646;28;20033;-76
2022/11/30 03:13:30;;;;;;;11.07;4.65;;;24.20;67.20;;;;;;5066390;28;20029;-74
2022/11/30 03:15:57;;;;;;;8.50;3.65;;;24.20;67.10;;;;;;5059513;28;20029;-68
2022/11/30 03:18:23;;;;;;;12.73;4.32;;;24.20;67.00;;;;;;5059732;28;20048;-74
2022/11/30 03:20:50;;;;;;;11.43;3.70;;;24.20;66.90;;;;;;5062777;28;20428;-75
2022/11/30 03:23:16;;;;;;;12.10;3.90;;;24.20;66.90;;;;;;5059797;28;20495;-76
2022/11/30 03:25:43;;;;;;;10.05;4.63;;;24.10;66.90;;;;;;5060236;28;20139;-77
2022/11/30 03:28:09;;;;;;;10.60;5.40;;;24.10;66.80;;;;;;5063556;28;20093;-74
2022/11/30 03:30:35;;;;;;;12.88;5.95;;;24.10;66.80;;;;;;5060896;28;20392;-77
2022/11/30 03:33:02;;;;;;;15.85;7.90;;;24.10;66.70;;;;;;5064974;28;20029;-75
2022/11/30 03:35:28;;;;;;;14.85;5.70;;;24.10;66.70;;;;;;5059456;28;20016;-73
2022/11/30 03:37:55;;;;;;;14.13;5.05;;;24.10;66.70;;;;;;5065525;28;20045;-74
2022/11/30 03:40:21;;;;;;;21.02;5.90;;;24.10;66.60;;;;;;5064922;28;20138;-72
2022/11/30 03:42:48;;;;;;;14.68;6.10;;;24.10;66.70;;;;;;5059500;28;20059;-71
2022/11/30 03:45:14;;;;;;;14.35;9.57;;;24.00;66.80;;;;;;5058767;28;20025;-72
2022/11/30 03:47:42;;;;;;;19.08;6.65;;;24.10;66.90;;;;;;5060607;28;20027;-72
2022/11/30 03:50:10;;;;;;;10.95;6.45;;;24.10;66.70;;;;;;5062663;28;20051;-72
2022/11/30 03:52:36;;;;;;;12.27;4.20;;;24.10;66.60;;;;;;5064095;28;20044;-73
2022/11/30 03:55:03;;;;;;;12.07;3.80;;;24.00;66.40;;;;;;5060785;28;20017;-76
2022/11/30 03:57:29;;;;;;;9.40;3.20;;;24.10;66.30;;;;;;5065417;28;20082;-70
2022/11/30 03:59:56;;;;;;;10.88;3.17;;;24.00;66.10;;;;;;5063211;28;20037;-71
2022/11/30 04:02:22;;;;;;;9.32;3.00;;;24.00;65.90;;;;;;5059646;28;20032;-69
2022/11/30 04:04:49;;;;;;;14.73;5.45;;;24.00;66.00;;;;;;5062472;28;20392;-67
2022/11/30 04:07:15;;;;;;;18.45;7.13;;;24.00;66.20;;;;;;5057453;28;20033;-68
2022/11/30 04:09:43;;;;;;;15.00;5.78;;;24.00;66.70;;;;;;5061868;28;20062;-70
2022/11/30 04:12:09;;;;;;;11.45;3.38;;;24.00;66.70;;;;;;5067066;28;20038;-70
2022/11/30 04:14:36;;;;;;;7.70;3.63;;;24.00;66.50;;;;;;5060643;28;20025;-71
2022/11/30 04:17:02;;;;;;;9.80;3.60;;;24.00;66.10;;;;;;5063092;28;20695;-69
2022/11/30 04:19:29;;;;;;;12.30;4.40;;;24.00;65.90;;;;;;5057153;28;20017;-71
2022/11/30 04:21:55;;;;;;;11.75;3.83;;;24.00;65.70;;;;;;5065569;28;20480;-69
2022/11/30 04:24:22;;;;;;;19.23;13.32;;;24.00;65.60;;;;;;5059004;28;20023;-69
2022/11/30 04:26:49;;;;;;;21.65;12.60;;;24.00;65.60;;;;;;5056913;28;20418;-70
2022/11/30 04:29:15;;;;;;;14.13;8.25;;;24.00;65.60;;;;;;5060045;28;20367;-69
2022/11/30 04:31:42;;;;;;;10.20;6.10;;;24.00;65.40;;;;;;5063962;28;20044;-70
2022/11/30 04:34:08;;;;;;;8.27;4.45;;;24.00;65.20;;;;;;5061935;28;20020;-70
2022/11/30 04:36:35;;;;;;;6.72;4.28;;;24.00;65.10;;;;;;5065278;28;20494;-73
2022/11/30 04:39:41;;;;;;;4.95;2.53;;;24.00;65.00;;;;;;5054070;28;20883;-70
2022/11/30 04:42:07;;;;;;;;;;;24.00;64.90;;;;;;5059534;28;20025;-69
2022/11/30 04:44:34;;;;;;;6.40;2.22;;;24.00;64.80;;;;;;5052215;28;19918;-68
2022/11/30 04:47:40;;;;;;;9.25;2.22;;;24.00;64.70;;;;;;5056566;28;20013;-69
2022/11/30 04:50:47;;;;;;;8.68;3.38;;;24.00;64.60;;;;;;5058209;28;20025;-69
2022/11/30 04:53:32;;;;;;;;;;;24.00;64.50;;;;;;5051627;28;20021;-68
2022/11/30 04:56:46;;;;;;;8.00;2.20;;;24.00;64.50;;;;;;5053662;28;19954;-70
2022/11/30 04:59:19;;;;;;;13.18;3.78;;;24.00;64.40;;;;;;5075313;28;20057;-68
2022/11/30 05:01:46;;;;;;;7.90;3.80;;;24.00;64.50;;;;;;5050258;28;20024;-68
2022/11/30 05:04:12;;;;;;;8.95;3.85;;;24.00;64.50;;;;;;5053567;28;20028;-70
2022/11/30 05:06:39;;;;;;;5.78;2.90;;;24.00;64.60;;;;;;5057343;28;20453;-69
2022/11/30 05:09:06;;;;;;;10.20;3.60;;;24.00;64.70;;;;;;5053343;28;20020;-68
2022/11/30 05:11:33;;;;;;;9.10;2.65;;;24.00;64.80;;;;;;5057549;28;20065;-68
2022/11/30 05:14:00;;;;;;;9.05;3.13;;;24.00;64.80;;;;;;5058859;28;20503;-70
2022/11/30 05:16:26;;;;;;;12.02;2.42;;;24.00;64.50;;;;;;5057018;28;20028;-69
2022/11/30 05:18:53;;;;;;;8.57;3.38;;;24.00;64.60;;;;;;5062087;28;20127;-68
2022/11/30 05:21:19;;;;;;;12.18;2.75;;;24.00;64.50;;;;;;5055756;28;20449;-69
2022/11/30 05:23:47;;;;;;;6.18;2.75;;;24.00;64.60;;;;;;5053842;28;20036;-68
2022/11/30 05:26:14;;;;;;;6.82;2.88;;;24.00;64.60;;;;;;5058237;28;20012;-68
2022/11/30 05:28:41;;;;;;;6.32;3.00;;;24.00;64.60;;;;;;5064633;28;20075;-69
2022/11/30 05:31:07;;;;;;;5.80;2.55;;;24.00;64.60;;;;;;5059661;28;20021;-69
2022/11/30 05:33:34;;;;;;;12.63;3.50;;;24.00;64.50;;;;;;5061516;28;20017;-69
2022/11/30 05:36:00;;;;;;;4.40;3.00;;;24.00;64.50;;;;;;5060353;28;20028;-68
2022/11/30 05:38:27;;;;;;;12.52;4.60;;;24.00;64.50;;;;;;5058162;28;20040;-69
2022/11/30 05:41:02;;;;;;;9.00;3.17;;;24.00;64.50;;;;;;5061101;28;20032;-69
2022/11/30 05:43:28;;;;;;;6.00;2.40;;;24.10;64.50;;;;;;5061156;28;20028;-68
2022/11/30 05:46:02;;;;;;;8.75;2.97;;;24.10;64.40;;;;;;5062252;28;20039;-70
2022/11/30 05:48:29;;;;;;;7.53;2.38;;;24.10;64.30;;;;;;5059316;28;20529;-68
2022/11/30 05:51:17;;;;;;;9.30;2.40;;;24.10;64.30;;;;;;5056371;28;20033;-69
2022/11/30 05:53:44;;;;;;;10.85;2.85;;;24.10;64.20;;;;;;5062635;28;20424;-68
2022/11/30 05:56:13;;;;;;;7.88;2.70;;;24.10;64.10;;;;;;5059089;28;20385;-68
2022/11/30 05:58:41;;;;;;;9.88;3.13;;;24.10;64.20;;;;;;5055725;28;20037;-68
2022/11/30 06:01:07;;;;;;;7.50;4.25;;;24.10;64.20;;;;;;5061876;28;20016;-71
2022/11/30 06:03:35;;;;;;;6.47;2.92;;;24.10;64.30;;;;;;5059231;28;20025;-68
2022/11/30 06:06:01;;;;;;;9.55;3.58;;;24.10;64.20;;;;;;5066586;28;20016;-69
2022/11/30 06:08:28;;;;;;;13.88;3.22;;;24.10;64.20;;;;;;5063648;28;20475;-69
2022/11/30 06:10:59;;;;;;;7.35;3.25;;;24.10;64.00;;;;;;5062545;28;20024;-70
2022/11/30 06:13:25;;;;;;;8.50;2.90;;;24.20;63.80;;;;;;5062078;28;20386;-70
2022/11/30 06:15:51;;;;;;;9.98;4.78;;;24.20;63.60;;;;;;5067815;28;20060;-68
2022/11/30 06:18:18;;;;;;;5.85;3.10;;;24.20;63.40;;;;;;5059677;28;20040;-69
2022/11/30 06:20:45;;;;;;;7.20;4.03;;;24.20;63.40;;;;;;5059932;28;20044;-69
2022/11/30 06:23:11;;;;;;;6.35;2.03;;;24.20;63.20;;;;;;5063425;28;20024;-70
2022/11/30 06:25:37;;;;;;;11.30;3.65;;;24.20;63.10;;;;;;5061224;28;20079;-69
2022/11/30 06:28:09;;;;;;;11.05;3.33;;;24.20;63.00;;;;;;5062782;28;20478;-71
2022/11/30 06:30:35;;;;;;;10.25;2.65;;;24.20;63.00;;;;;;5063654;28;20403;-69
2022/11/30 06:33:02;;;;;;;7.72;3.10;;;24.20;63.00;;;;;;5063215;28;20056;-70
2022/11/30 06:35:28;;;;;;;6.10;2.13;;;24.20;63.00;;;;;;5064066;28;20029;-70
2022/11/30 06:37:56;;;;;;;11.00;3.55;;;24.20;63.00;;;;;;5064352;28;20028;-68
2022/11/30 06:40:23;;;;;;;9.40;2.88;;;24.20;63.00;;;;;;5063112;28;20484;-70
2022/11/30 06:42:49;;;;;;;6.20;1.92;;;24.20;63.00;;;;;;5064188;28;20056;-70
2022/11/30 06:45:16;;;;;;;11.88;2.50;;;24.20;63.00;;;;;;5065024;28;20024;-69
2022/11/30 06:47:42;;;;;;;7.03;3.05;;;24.20;62.90;;;;;;5063482;28;20021;-70
2022/11/30 07:34:55;;;;;;;7.65;3.20;;;24.40;62.80;;;;;;5049948;28;20087;-70
2022/11/30 07:37:22;;;;;;;13.68;3.03;;;24.40;62.60;;;;;;5054038;28;20036;-72
2022/11/30 07:39:48;;;;;;;6.70;2.75;;;24.40;62.20;;;;;;5056665;28;20063;-70
2022/11/30 07:42:16;;;;;;;10.77;2.92;;;24.40;62.10;;;;;;5059912;28;20017;-71
2022/11/30 07:44:43;;;;;;;7.07;2.63;;;24.40;62.20;;;;;;5059791;28;20467;-69
2022/11/30 07:47:09;;;;;;;10.10;3.55;;;24.40;63.10;;;;;;5054843;28;20052;-71
2022/11/30 07:49:38;;;;;;;7.53;3.78;;;24.50;62.50;;;;;;5059078;28;20036;-72
2022/11/30 07:52:05;;;;;;;7.45;2.97;;;24.40;62.10;;;;;;5063891;28;20056;-70
2022/11/30 07:54:31;;;;;;;9.70;2.72;;;24.50;62.20;;;;;;5058857;28;20024;-72
2022/11/30 07:56:58;;;;;;;7.32;2.42;;;24.50;62.30;;;;;;5061423;28;20021;-72
2022/11/30 07:59:25;;;;;;;5.35;2.60;;;24.50;62.20;;;;;;5059629;28;20021;-69
2022/11/30 08:01:51;;;;;;;8.40;3.05;;;24.50;61.90;;;;;;5052348;28;20029;-70
2022/11/30 08:04:18;;;;;;;6.63;2.33;;;24.60;62.60;;;;;;5059475;28;20618;-69
2022/11/30 08:06:44;;;;;;;8.75;2.97;;;24.60;61.50;;;;;;5059015;28;20013;-72
2022/11/30 08:09:11;;;;;;;7.68;2.58;;;24.60;61.40;;;;;;5065861;28;20020;-72
2022/11/30 08:11:38;;;;;;;11.73;3.10;;;24.60;61.50;;;;;;5060900;28;20115;-71
2022/11/30 08:14:05;;;;;;;12.27;3.60;;;24.60;61.60;;;;;;5056621;28;20382;-72
2022/11/30 08:16:36;;;;;;;6.18;1.90;;;24.70;62.10;;;;;;5060982;28;20020;-70
2022/11/30 08:19:03;;;;;;;7.82;2.45;;;24.70;62.30;;;;;;5063163;28;20040;-72
2022/11/30 08:21:33;;;;;;;10.00;3.40;;;24.70;62.00;;;;;;5061616;28;20062;-71
2022/11/30 08:23:59;;;;;;;10.18;2.42;;;24.70;62.00;;;;;;5061756;28;20475;-71
2022/11/30 08:26:29;;;;;;;9.50;2.75;;;24.80;61.90;;;;;;5061162;28;20059;-69
2022/11/30 08:28:57;;;;;;;16.63;2.85;;;24.80;61.40;;;;;;5062601;28;20502;-69
2022/11/30 08:31:27;;;;;;;10.48;3.25;;;24.80;61.20;;;;;;5064033;28;20074;-70
2022/11/30 08:34:02;;;;;;;3.75;1.67;;;24.70;61.00;;;;;;5063101;28;20058;-72
2022/11/30 08:36:30;;;;;;;8.52;2.03;;;24.70;60.90;;;;;;5058689;28;20036;-72
2022/11/30 08:38:58;;;;;;;8.20;2.03;;;24.70;61.10;;;;;;5043236;28;20414;-71
2022/11/30 08:41:25;;;;;;;9.20;2.33;;;24.70;60.90;;;;;;5059414;28;20020;-71
2022/11/30 08:43:53;;;;;;;9.40;3.22;;;24.80;60.80;;;;;;5059903;28;20032;-71
2022/11/30 08:46:21;;;;;;;7.93;2.72;;;24.80;60.70;;;;;;5061539;28;20535;-69
2022/11/30 08:48:48;;;;;;;6.45;2.08;;;24.80;60.50;;;;;;5061182;28;20425;-72
2022/11/30 08:51:17;;;;;;;13.43;2.88;;;24.90;60.20;;;;;;5060799;28;20033;-71
2022/11/30 08:53:44;;;;;;;19.45;4.70;;;24.90;60.40;;;;;;5059010;28;20025;-72
2022/11/30 08:56:19;;;;;;;7.97;3.00;;;24.90;60.80;;;;;;5063904;28;20124;-72
2022/11/30 08:58:47;;;;;;;6.80;2.00;;;25.00;61.80;;;;;;5057312;28;20394;-71
2022/11/30 09:01:16;;;;;;;7.30;2.08;;;25.00;61.70;;;;;;5056040;28;20422;-72
2022/11/30 09:03:43;;;;;;;8.95;2.58;;;25.00;61.00;;;;;;5060385;28;20151;-72
2022/11/30 09:06:15;;;;;;;18.73;2.67;;;25.00;61.10;;;;;;5061405;28;20495;-72
2022/11/30 09:08:44;;;;;;;4.22;2.17;;;25.10;61.30;;;;;;5059266;28;20016;-71
2022/11/30 09:11:14;;;;;;;8.07;3.00;;;25.10;60.70;;;;;;5059105;28;20028;-72
2022/11/30 09:13:41;;;;;;;7.90;2.58;;;25.20;60.50;;;;;;5055589;28;20040;-70
2022/11/30 09:16:09;;;;;;;9.15;3.10;;;25.30;60.10;;;;;;5059535;28;20020;-71
2022/11/30 09:18:36;;;;;;;6.20;2.00;;;25.30;59.70;;;;;;5062499;28;20036;-70
2022/11/30 09:21:05;;;;;;;13.73;3.97;;;25.40;59.50;;;;;;5058451;28;20044;-71
2022/11/30 09:23:32;;;;;;;7.88;3.38;;;25.50;59.50;;;;;;5057776;28;20032;-72
2022/11/30 09:26:01;;;;;;;10.20;3.88;;;25.50;59.40;;;;;;5057443;28;20029;-72
2022/11/30 09:28:30;;;;;;;7.65;3.17;;;25.60;59.70;;;;;;5059781;28;20013;-71
2022/11/30 09:31:06;;;;;;;5.78;2.30;;;25.70;59.80;;;;;;5061084;28;20166;-70
2022/11/30 09:33:33;;;;;;;7.28;2.28;;;25.80;59.40;;;;;;5061863;28;20020;-71
2022/11/30 09:36:02;;;;;;;8.40;3.05;;;25.80;58.90;;;;;;5061446;28;20122;-71
2022/11/30 09:38:29;;;;;;;6.65;3.38;;;25.80;58.50;;;;;;5060982;28;20036;-70
2022/11/30 09:40:58;;;;;;;6.65;2.08;;;25.90;58.30;;;;;;5061931;28;20542;-70
2022/11/30 09:43:27;;;;;;;9.60;1.80;;;25.90;58.10;;;;;;5062701;28;20072;-71
2022/11/30 09:45:59;;;;;;;6.40;2.22;;;25.80;57.90;;;;;;5069084;28;20047;-72
2022/11/30 09:48:25;;;;;;;8.82;3.22;;;25.80;58.00;;;;;;5062602;28;20040;-71
2022/11/30 09:50:54;;;;;;;5.93;1.70;;;25.80;58.00;;;;;;5061492;28;20747;-72
2022/11/30 09:53:34;;;;;;;7.53;2.60;;;25.70;57.70;;;;;;5069969;28;20151;-71
2022/11/30 09:56:01;;;;;;;6.45;2.55;;;25.70;57.70;;;;;;5064115;28;20110;-72
2022/11/30 09:58:43;;;;;;;7.30;2.38;;;25.70;57.70;;;;;;5062764;28;20064;-70
2022/11/30 10:01:18;;;;;;;7.00;1.88;;;25.70;57.60;;;;;;5062157;28;20028;-71
2022/11/30 10:03:45;;;;;;;6.70;2.90;;;25.70;57.30;;;;;;5059932;28;20035;-72
2022/11/30 10:06:23;;;;;;;10.02;2.63;;;25.70;57.20;;;;;;5062311;28;20388;-71
2022/11/30 10:09:25;;;;;;;5.57;2.25;;;25.70;57.00;;;;;;5063131;28;20032;-70
2022/11/30 10:12:06;;;;;;;3.28;1.48;;;25.70;56.70;;;;;;5063188;28;20021;-71
2022/11/30 10:14:50;;;;;;;5.20;2.40;;;25.80;57.00;;;;;;5066669;28;20020;-72
2022/11/30 10:17:39;;;;;;;6.97;2.35;;;25.70;56.20;;;;;;5060837;28;20029;-72
2022/11/30 10:20:18;;;;;;;5.55;2.03;;;25.80;56.10;;;;;;5059269;28;20032;-70
2022/11/30 10:23:06;;;;;;;10.50;2.33;;;25.70;56.00;;;;;;5063490;28;20367;-70
2022/11/30 10:25:51;;;;;;;8.40;1.92;;;25.80;56.20;;;;;;5059346;28;20024;-71
2022/11/30 10:28:31;;;;;;;7.90;2.47;;;25.80;56.50;;;;;;5065191;28;20494;-72
2022/11/30 10:31:00;;;;;;;8.23;3.30;;;25.80;56.60;;;;;;5061767;28;20028;-72
2022/11/30 10:33:36;;;;;;;8.68;2.08;;;25.80;56.50;;;;;;5058538;28;20024;-72
2022/11/30 10:36:09;;;;;;;8.48;2.58;;;25.90;56.60;;;;;;5064296;28;20039;-72
2022/11/30 10:38:49;;;;;;;6.53;2.92;;;25.90;56.90;;;;;;5065364;28;20387;-72
2022/11/30 10:41:25;;;;;;;9.60;4.25;;;25.90;57.10;;;;;;5060619;28;20467;-72
2022/11/30 10:44:16;;;;;;;5.63;2.35;;;26.00;57.30;;;;;;5064875;28;20039;-73
2022/11/30 10:46:51;;;;;;;11.43;2.60;;;26.00;57.30;;;;;;5063004;28;20016;-70
2022/11/30 10:49:21;;;;;;;8.90;3.33;;;26.10;57.20;;;;;;5061814;28;20037;-71
2022/11/30 10:51:53;;;;;;;10.32;4.13;;;26.20;57.40;;;;;;5064041;28;20104;-72
2022/11/30 10:54:21;;;;;;;23.80;4.82;;;26.30;57.20;;;;;;5065255;28;20025;-72
2022/11/30 10:56:48;;;;;;;14.73;3.00;;;26.40;57.10;;;;;;5064339;28;20025;-72
2022/11/30 10:59:53;;;;;;;7.10;2.10;;;26.50;56.80;;;;;;5063682;28;20502;-72
2022/11/30 11:02:41;;;;;;;5.32;1.77;;;26.60;56.20;;;;;;5063169;28;20041;-71
2022/11/30 11:05:28;;;;;;;5.82;2.60;;;26.70;56.30;;;;;;5044832;28;20048;-72
2022/11/30 11:08:02;;;;;;;8.13;2.15;;;26.80;56.30;;;;;;5062341;28;20074;-72
2022/11/30 11:10:45;;;;;;;9.63;2.78;;;26.80;56.00;;;;;;5061587;28;20020;-71
2022/11/30 11:13:34;;;;;;;5.75;1.88;;;26.90;55.50;;;;;;5063376;28;20071;-72
2022/11/30 11:16:02;;;;;;;6.15;2.17;;;27.00;55.60;;;;;;5063288;28;20357;-72
2022/11/30 11:18:33;;;;;;;5.03;2.13;;;27.00;55.10;;;;;;5062350;28;20050;-72
2022/11/30 11:21:06;;;;;;;7.95;2.58;;;27.10;54.60;;;;;;5067273;28;20106;-71
2022/11/30 11:23:38;;;;;;;7.18;2.28;;;27.10;54.20;;;;;;5060395;28;20479;-71
2022/11/30 11:26:14;;;;;;;4.13;1.92;;;27.10;54.00;;;;;;5064019;28;20029;-69
2022/11/30 11:28:46;;;;;;;17.00;2.75;;;27.20;53.90;;;;;;5062212;28;20020;-71
2022/11/30 11:31:45;;;;;;;8.18;2.00;;;27.20;54.10;;;;;;5065013;28;20104;-71
2022/11/30 11:34:30;;;;;;;6.95;2.17;;;27.30;54.10;;;;;;5063296;28;20655;-72
2022/11/30 11:37:20;;;;;;;8.77;2.05;;;27.30;53.70;;;;;;5061876;28;20400;-71
2022/11/30 11:39:56;;;;;;;5.97;2.25;;;27.30;53.10;;;;;;5062254;28;20017;-70
2022/11/30 11:42:23;;;;;;;3.90;1.70;;;27.30;52.90;;;;;;5058408;28;20025;-71
2022/11/30 11:44:55;;;;;;;4.13;2.00;;;27.30;52.70;;;;;;5062027;28;20479;-71
2022/11/30 11:47:47;;;;;;;8.32;2.40;;;27.30;52.80;;;;;;5060963;28;20020;-72
2022/11/30 11:50:21;;;;;;;4.88;3.50;;;27.30;52.70;;;;;;5066356;28;20021;-71
2022/11/30 11:52:48;;;;;;;10.23;2.57;;;27.40;52.50;;;;;;5064116;28;20033;-71
2022/11/30 11:55:20;;;;;;;5.13;1.90;;;27.40;52.50;;;;;;5061773;28;20025;-71
2022/11/30 11:57:56;;;;;;;5.03;1.45;;;27.50;52.20;;;;;;5061958;28;20060;-70
2022/11/30 12:00:26;;;;;;;4.13;2.40;;;27.60;52.00;;;;;;5064781;28;20025;-71
2022/11/30 12:03:19;;;;;;;4.75;2.50;;;27.60;51.90;;;;;;5057657;28;20391;-70
2022/11/30 12:05:52;;;;;;;4.10;1.70;;;27.60;51.50;;;;;;5043687;28;20083;-71
2022/11/30 12:08:49;;;;;;;6.40;1.90;;;27.60;51.40;;;;;;5059272;28;20104;-70
2022/11/30 12:11:18;;;;;;;8.60;2.97;;;27.70;51.30;;;;;;5057108;28;20028;-70
2022/11/30 12:13:46;;;;;;;7.78;1.85;;;27.70;51.50;;;;;;5060814;28;20013;-71
2022/11/30 12:16:13;;;;;;;8.15;3.03;;;27.70;51.50;;;;;;5060982;28;20059;-72
2022/11/30 12:19:01;;;;;;;6.45;2.08;;;27.80;51.60;;;;;;5059108;28;20478;-70
2022/11/30 12:21:45;;;;;;;6.15;2.70;;;27.80;51.40;;;;;;5061700;28;20378;-72
2022/11/30 12:24:17;;;;;;;5.75;1.92;;;27.80;51.40;;;;;;5062821;28;20021;-70
2022/11/30 12:26:55;;;;;;;4.63;1.90;;;27.80;51.30;;;;;;5057894;28;20024;-70
2022/11/30 12:29:30;;;;;;;5.95;2.95;;;27.90;51.00;;;;;;5057478;28;20052;-70
2022/11/30 12:32:01;;;;;;;4.88;2.00;;;27.90;51.10;;;;;;5059376;28;20024;-72
2022/11/30 12:34:49;;;;;;;6.45;2.65;;;28.00;51.40;;;;;;5062815;28;20031;-70
2022/11/30 12:37:24;;;;;;;10.38;2.92;;;28.00;51.20;;;;;;5062571;28;20016;-71
2022/11/30 12:40:03;;;;;;;;;;;28.00;51.10;;;;;;5061938;28;20025;-70
2022/11/30 12:42:52;;;;;;;7.82;2.15;;;28.10;51.10;;;;;;5061386;28;19919;-70
2022/11/30 12:45:18;;;;;;;6.55;2.15;;;28.10;51.10;;;;;;5066688;28;20017;-71
2022/11/30 12:47:57;;;;;;;8.23;2.17;;;28.10;50.70;;;;;;5058572;28;20032;-72
2022/11/30 12:50:44;;;;;;;9.20;2.05;;;28.20;50.70;;;;;;5063547;28;20031;-70
2022/11/30 12:53:20;;;;;;;4.03;1.95;;;28.20;50.80;;;;;;5057991;28;20063;-71
2022/11/30 12:55:59;;;;;;;8.50;2.13;;;28.20;51.10;;;;;;5059021;28;20523;-70
2022/11/30 12:58:33;;;;;;;6.72;1.85;;;28.20;51.00;;;;;;5059495;28;20040;-71
2022/11/30 13:01:13;;;;;;;;;;;28.20;50.60;;;;;;5062789;28;20021;-69
2022/11/30 13:03:49;;;;;;;3.70;1.63;;;28.20;50.50;;;;;;5058049;28;19915;-72
2022/11/30 13:06:23;;;;;;;8.27;2.33;;;28.20;50.60;;;;;;5060005;28;20060;-70
2022/11/30 13:08:56;;;;;;;5.63;1.75;;;28.20;50.70;;;;;;5061844;28;20033;-71
2022/11/30 13:11:39;;;;;;;7.05;1.92;;;28.20;50.40;;;;;;5056880;28;20090;-71
2022/11/30 13:14:20;;;;;;;4.68;1.65;;;28.20;50.20;;;;;;5063231;28;20098;-71
2022/11/30 13:16:49;;;;;;;9.05;2.47;;;28.20;50.20;;;;;;5057892;28;20535;-71
2022/11/30 13:19:44;;;;;;;4.82;2.10;;;28.30;50.30;;;;;;5059123;28;20033;-71
2022/11/30 13:22:24;;;;;;;7.37;1.30;;;28.20;50.20;;;;;;5059678;28;20749;-71
2022/11/30 13:25:02;;;;;;;4.45;2.45;;;28.20;50.20;;;;;;5065056;28;20308;-70
2022/11/30 13:28:11;;;;;;;6.95;2.30;;;28.20;50.30;;;;;;5061130;28;20383;-70
2022/11/30 13:30:49;;;;;;;5.43;2.55;;;28.20;50.20;;;;;;5046273;28;20033;-70
2022/11/30 13:33:34;;;;;;;10.65;1.98;;;28.20;50.20;;;;;;5063974;28;20021;-70
2022/11/30 13:36:20;;;;;;;6.25;1.70;;;28.20;50.40;;;;;;5044528;28;20048;-72
2022/11/30 13:39:06;;;;;;;4.55;1.50;;;28.10;50.40;;;;;;5062258;28;20040;-71
2022/11/30 13:41:33;;;;;;;5.78;1.88;;;28.10;50.40;;;;;;5058248;28;20017;-71
2022/11/30 13:44:00;;;;;;;6.50;2.97;;;28.10;50.40;;;;;;5062287;28;20017;-70
2022/11/30 13:46:27;;;;;;;6.22;2.05;;;28.10;50.50;;;;;;5064651;28;20028;-70
2022/11/30 13:49:19;;;;;;;6.20;2.05;;;28.10;50.50;;;;;;5058424;28;20102;-70
2022/11/30 13:51:45;;;;;;;6.93;2.50;;;28.10;50.50;;;;;;5057201;28;20029;-71
2022/11/30 13:54:42;;;;;;;3.25;1.80;;;28.10;50.50;;;;;;5060685;28;20079;-71
2022/11/30 13:57:28;;;;;;;4.00;1.88;;;28.00;50.60;;;;;;5058361;28;20511;-70
2022/11/30 13:59:57;;;;;;;5.90;2.33;;;28.00;50.60;;;;;;5062779;28;20032;-70
2022/11/30 14:02:33;;;;;;;5.53;1.98;;;28.10;50.70;;;;;;5059651;28;20025;-70
2022/11/30 14:05:17;;;;;;;6.55;2.30;;;28.10;50.80;;;;;;5054976;28;20021;-69
2022/11/30 14:07:51;;;;;;;5.97;2.42;;;28.10;50.90;;;;;;5056325;28;20020;-71
2022/11/30 14:10:46;;;;;;;8.20;2.38;;;28.10;50.90;;;;;;5056642;28;20067;-71
2022/11/30 14:13:14;;;;;;;4.18;1.83;;;28.10;51.00;;;;;;5060557;28;20024;-71
2022/11/30 14:15:44;;;;;;;4.32;2.45;;;28.10;51.10;;;;;;5057673;28;20013;-71
2022/11/30 14:18:10;;;;;;;7.70;2.03;;;28.10;51.40;;;;;;5058649;28;20455;-71
2022/11/30 14:20:58;;;;;;;6.30;2.45;;;28.10;51.50;;;;;;5060231;28;20032;-71
2022/11/30 14:23:55;;;;;;;7.85;2.28;;;28.10;51.60;;;;;;5057809;28;20442;-70
2022/11/30 14:26:28;;;;;;;5.00;1.90;;;28.00;51.40;;;;;;5061217;28;20013;-69
2022/11/30 14:29:06;;;;;;;7.28;2.03;;;28.00;51.50;;;;;;5061032;28;20025;-70
2022/11/30 14:31:50;;;;;;;6.22;1.80;;;28.00;51.50;;;;;;5063163;28;20058;-70
2022/11/30 14:34:31;;;;;;;9.55;2.70;;;28.00;51.50;;;;;;5064587;28;20479;-72
2022/11/30 14:37:02;;;;;;;6.30;2.28;;;28.00;51.60;;;;;;5063021;28;20032;-70
2022/11/30 14:39:40;;;;;;;6.68;1.98;;;28.00;51.60;;;;;;5058344;28;20394;-71
2022/11/30 14:42:35;;;;;;;8.48;2.40;;;28.00;51.40;;;;;;5061102;28;20032;-70
2022/11/30 14:45:03;;;;;;;6.10;2.65;;;28.00;51.40;;;;;;5067042;28;20020;-70
2022/11/30 14:47:31;;;;;;;7.40;2.40;;;27.90;51.40;;;;;;5064604;28;20032;-71
2022/11/30 14:50:04;;;;;;;7.32;1.70;;;27.90;51.40;;;;;;5066092;28;20028;-75
2022/11/30 14:52:58;;;;;;;9.93;3.45;;;27.90;51.40;;;;;;5067510;28;20021;-75
2022/11/30 14:55:31;;;;;;;4.95;2.10;;;27.90;51.30;;;;;;5068917;28;20032;-77
2022/11/30 14:58:10;;;;;;;10.32;2.78;;;27.90;51.40;;;;;;5050506;28;20123;-76
2022/11/30 15:00:42;;;;;;;4.75;2.05;;;27.90;51.50;;;;;;5062951;28;20103;-77
2022/11/30 15:03:24;;;;;;;4.43;1.88;;;27.90;51.50;;;;;;5051547;28;20046;-74
2022/11/30 15:05:59;;;;;;;8.55;2.95;;;27.90;51.50;;;;;;5065382;28;20488;-75
2022/11/30 15:08:41;;;;;;;14.98;2.30;;;27.90;51.50;;;;;;5063193;28;20031;-73
2022/11/30 15:11:12;;;;;;;7.82;2.78;;;28.00;51.50;;;;;;5063174;28;20027;-75
2022/11/30 15:13:42;;;;;;;6.13;2.25;;;27.90;51.50;;;;;;5062106;28;20028;-75
2022/11/30 15:16:29;;;;;;;9.00;2.78;;;27.90;51.60;;;;;;5068016;28;20024;-74
2022/11/30 15:18:57;;;;;;;5.90;2.58;;;27.90;51.60;;;;;;5061032;28;20033;-74
2022/11/30 15:21:30;;;;;;;5.38;2.00;;;27.90;51.60;;;;;;5067649;28;20027;-73